Namao — CZ9742 — position and weather

sailwx.info

Track history (hours):
 
Tides and Currents Weather Stations Pressure Air Temp Water Temp Dewpoint Dewpoint Depression Visibility Wind Speed Wind Dir Waves Ship Positions

Oceanographic research ship Namao (Canada)

Last reported at 2018-May-23 04:00 UTC. Time now 2018-May-23 05:28 UTC.
Position N 50°36' W 096°54'.

Wind from 200 at 7 knots

Barometer 1013.7 mb
Air temperature 20.7 ° C
Dewpoint 8.1 ° C

Date/timePositionNaut miles runAvg speedWind from/ knotsBaromVisibWave heightAir tempDewpointWater temp
2018-May-23 04:00N 50°36' W 096°54'0 0.0 200 / 71013.7 20.7 8.1
2018-May-23 03:00N 50°36' W 096°54'0 0.0 180 / 51013.4 20.1 9.2
2018-May-23 02:00N 50°36' W 096°54'0 0.0 170 / 41012.7 19.7 8.3
2018-May-23 01:00N 50°36' W 096°54'0 0.0 150 / 51012.8 17.2 9.5
2018-May-23 00:00N 50°36' W 096°54'0 0.0 100 / 41012.5 16.711.9
2018-May-22 23:00N 50°36' W 096°54'0 0.0 080 / 41012.5 14.412.9
2018-May-22 22:00N 50°36' W 096°54'0 0.0 110 / 111012.3 16.711.3
2018-May-22 21:00N 50°36' W 096°54'0 0.0 110 / 101012.3 16.711.5
2018-May-22 20:00N 50°36' W 096°54'0 0.0 100 / 111012.4 17.411.1
2018-May-22 19:00N 50°36' W 096°54'0 0.0 110 / 101013.0 16.412.3
2018-May-22 18:00N 50°36' W 096°54'0 0.0 120 / 111013.1 15.512.7
2018-May-22 17:00N 50°36' W 096°54'0 0.0 130 / 111013.0 14.412.9
2018-May-22 16:00N 50°36' W 096°54'0 0.0 130 / 81012.8 15.012.4
2018-May-22 15:00N 50°36' W 096°54'0 0.0 160 / 71012.7 16.7 9.7
2018-May-22 14:00N 50°36' W 096°54'0 0.0 190 / 101012.7 16.8 8.7
2018-May-22 13:00N 50°36' W 096°54'0 0.0 200 / 81012.7 14.7 7.4
2018-May-22 12:00N 50°36' W 096°54'0 0.0 190 / 81012.6 12.7 5.3
2018-May-22 11:00N 50°36' W 096°54'0 0.0 200 / 71012.1 12.7 3.3
2018-May-22 10:00N 50°36' W 096°54'0 0.0 210 / 91011.8 12.8 0.2
2018-May-22 09:00N 50°36' W 096°54'0 0.0 210 / 81011.4 13.7 0.2
2018-May-22 08:00N 50°36' W 096°54'0 0.0 200 / 81011.3 13.4-1.7
2018-May-22 07:00N 50°36' W 096°54'0 0.0 190 / 61011.1 14.4-2.4
2018-May-22 06:00N 50°36' W 096°54'0 0.0 180 / 71011.0 14.8-1.4
2018-May-22 05:00N 50°36' W 096°54'0 0.0 190 / 81011.4 16.7-2.7
2018-May-22 04:00N 50°36' W 096°54'0 0.0 190 / 71011.2 18.5-1.3
2018-May-22 03:00N 50°36' W 096°54'0 0.0 180 / 51010.9 16.5 4.6
2018-May-22 02:00N 50°36' W 096°54'0 0.0 160 / 71010.6 17.9 6.5
2018-May-22 01:00N 50°36' W 096°54'0 0.0 160 / 81010.6 22.5 1.2
2018-May-22 00:00N 50°36' W 096°54'0 0.0 150 / 101011.2 20.1 1.7
2018-May-21 23:00N 50°36' W 096°54'0 0.0 150 / 91011.5 19.3 2.8
2018-May-21 22:00N 50°36' W 096°54'0 0.0 150 / 101012.1 17.4 3.7
2018-May-21 21:00N 50°36' W 096°54'0 0.0 130 / 151012.9 16.9 5.6
2018-May-21 20:00N 50°36' W 096°54'0 0.0 120 / 111013.8 15.7 6.9
2018-May-21 19:00N 50°36' W 096°54'0 0.0 110 / 121014.5 15.4 5.5
2018-May-21 18:00N 50°36' W 096°54'0 0.0 110 / 91015.4 14.3 7.1
2018-May-21 17:00N 50°36' W 096°54'0 0.0 120 / 131015.6 13.8 6.8
2018-May-21 16:00N 50°36' W 096°54'0 0.0 140 / 71016.3 13.3 6.2
2018-May-21 15:00N 50°36' W 096°54'0 0.0 230 / 51016.6 20.4 0.1
2018-May-21 14:00N 50°36' W 096°54'0 0.0 240 / 61017.3 18.1 1.1
2018-May-21 13:00N 50°36' W 096°54'0 0.0 210 / 51017.8 12.7 1.4
2018-May-21 12:00N 50°36' W 096°54'0 0.0 180 / 61017.8 9.0 0.9
2018-May-21 11:00N 50°36' W 096°54'0 0.0 190 / 61017.5 8.6 0.8
2018-May-21 10:00N 50°36' W 096°54'0 0.0 220 / 41017.3 12.0-1.0
2018-May-21 09:00N 50°36' W 096°54'0 0.0 230 / 71017.1 14.4-1.3
2018-May-21 08:00N 50°36' W 096°54'0 0.0 230 / 71016.8 14.4-1.3
2018-May-21 07:00N 50°36' W 096°54'0 0.0 210 / 111016.8 15.6-1.2
2018-May-21 06:00N 50°36' W 096°54'0 0.0 210 / 121016.7 16.1-1.4
2018-May-21 05:00N 50°36' W 096°54'0 0.0 190 / 81016.7 16.1-1.0
2018-May-21 04:00N 50°36' W 096°54'0 0.0 180 / 81016.3 15.5 6.4
2018-May-21 03:00N 50°36' W 096°54'0 0.0 180 / 71016.3 15.8 5.4
2018-May-21 02:00N 50°36' W 096°54'0 0.0 200 / 31015.9 23.2-5.0
2018-May-21 01:00N 50°36' W 096°54'0 0.0 220 / 71016.2 24.9-5.2
2018-May-20 23:00N 50°36' W 096°54'0 0.0 250 / 101017.1 25.2-5.5
2018-May-20 22:00N 50°36' W 096°54'0 0.0 240 / 101017.7 24.9-5.3
2018-May-20 21:00N 50°36' W 096°54'0 0.0 240 / 91018.2 24.9-3.8
2018-May-20 20:00N 50°36' W 096°54'0 0.0 180 / 71018.9 21.2-1.2
2018-May-20 19:00N 50°36' W 096°54'0 0.0 140 / 91019.5 17.6 2.4
2018-May-20 18:00N 50°36' W 096°54'0 0.0 120 / 141019.7 17.4 4.3
2018-May-20 17:00N 50°36' W 096°54'0 0.0 130 / 91020.2 15.2 6.4
2018-May-20 15:00N 50°36' W 096°54'0 0.0 260 / 41020.7 19.7-0.8
2018-May-20 14:00N 50°36' W 096°54'0 0.0 250 / 81021.0 16.5-0.1
2018-May-20 13:00N 50°36' W 096°54'0 0.0 250 / 91021.7 12.7 0.7
2018-May-20 12:00N 50°36' W 096°54'0 0.0 240 / 71021.8 9.9-0.2
2018-May-20 11:00N 50°36' W 096°54'0 0.0 230 / 51021.9 6.5-0.7
2018-May-20 10:00N 50°36' W 096°54'0 0.0 240 / 61022.0 6.2-1.2
2018-May-20 09:00N 50°36' W 096°54'0 0.0 230 / 71022.1 6.5-1.1
2018-May-20 08:00N 50°36' W 096°54'0 0.0 240 / 51022.1 6.1-1.7
2018-May-20 07:00N 50°36' W 096°54'0 0.0 240 / 41022.1 7.8-2.2
2018-May-20 06:00N 50°36' W 096°54'0 0.0 230 / 51022.0 8.5-2.5
2018-May-20 05:00N 50°36' W 096°54'0 0.0 250 / 41022.0 8.4-1.5
2018-May-20 04:00N 50°36' W 096°54'0 0.0 240 / 21021.9 10.3-1.9
2018-May-20 03:00N 50°36' W 096°54'0 0.0 1021.9 11.8-0.3
2018-May-20 02:00N 50°36' W 096°54'0 0.0 090 / 21021.4 12.5 0.9
2018-May-20 01:00N 50°36' W 096°54'0 0.0 120 / 21021.3 13.6 3.8
2018-May-20 00:00N 50°36' W 096°54'0 0.0 090 / 21021.4 14.2 0.7
2018-May-19 23:00N 50°36' W 096°54'0 0.0 050 / 71021.4 12.5 2.2
2018-May-19 22:00N 50°36' W 096°54'0 0.0 070 / 41021.5 13.6 3.4
2018-May-19 21:00N 50°36' W 096°54'0 0.0 080 / 61021.8 13.0 2.9
2018-May-19 20:00N 50°36' W 096°54'0 0.0 130 / 71022.2 11.9 5.8
2018-May-19 19:00N 50°36' W 096°54'0 0.0 120 / 91022.8 11.2 8.3
2018-May-19 18:00N 50°36' W 096°54'0 0.0 120 / 81023.4 9.8 9.7
2018-May-19 17:00N 50°36' W 096°54'0 0.0 110 / 91023.8 9.6 9.2
2018-May-19 16:00N 50°36' W 096°54'0 0.0 110 / 61024.1 9.0 6.6
2018-May-19 15:00N 50°36' W 096°54'0 0.0 140 / 61024.8 8.5 5.5
2018-May-19 14:00N 50°36' W 096°54'0 0.0 220 / 31024.6 8.9-0.9
2018-May-19 13:00N 50°36' W 096°54'0 0.0 270 / 21024.7 5.8-1.3
2018-May-19 12:00N 50°36' W 096°54'0 0.0 310 / 21024.2 4.4-2.6
2018-May-19 11:00N 50°36' W 096°54'0 0.0 280 / 41024.3 1.4-2.6
2018-May-19 10:00N 50°36' W 096°54'0 0.0 290 / 21023.7 1.9-2.8
2018-May-19 09:00N 50°36' W 096°54'0 0.0 290 / 31023.6 3.0-3.3
2018-May-19 08:00N 50°36' W 096°54'0 0.0 330 / 21023.1 5.5-3.0
2018-May-19 07:00N 50°36' W 096°54'0 0.0 320 / 31022.6 6.1-3.9
2018-May-19 06:00N 50°36' W 096°54'0 0.0 340 / 41022.4 7.2-3.7
2018-May-19 05:00N 50°36' W 096°54'0 0.0 320 / 41022.1 6.6-0.5
2018-May-19 04:00N 50°36' W 096°54'0 0.0 340 / 31021.8 7.8 3.7
2018-May-19 03:00N 50°36' W 096°54'0 0.0 010 / 81021.2 8.8 3.1
2018-May-19 02:00N 50°36' W 096°54'0 0.0 040 / 71020.4 8.7 6.0
2018-May-19 01:00N 50°36' W 096°54'0 0.0 010 / 81020.3 8.5 5.9
2018-May-19 00:00N 50°36' W 096°54'0 0.0 020 / 91020.0 8.4 5.7
2018-May-18 23:00N 50°36' W 096°54'0 0.0 030 / 51020.1 7.2 6.9
2018-May-18 22:00N 50°36' W 096°54'0 0.0 020 / 101019.7 8.0 7.3
2018-May-18 21:00N 50°36' W 096°54'0 0.0 020 / 101020.0 7.6 7.5
2018-May-18 20:00N 50°36' W 096°54'0 0.0 020 / 131019.9 7.2 7.1
2018-May-18 19:00N 50°36' W 096°54'0 0.0 020 / 161019.4 7.1 7.1
2018-May-18 18:00N 50°36' W 096°54'0 0.0 020 / 141019.9 7.0 7.0
2018-May-18 17:00N 50°36' W 096°54'0 0.0 030 / 151020.1 6.8 6.8
2018-May-18 16:00N 50°36' W 096°54'0 0.0 030 / 141019.9 6.3 6.4
2018-May-18 15:00N 50°36' W 096°54'0 0.0 020 / 131020.4 6.1 6.2
2018-May-18 14:00N 50°36' W 096°54'0 0.0 060 / 151020.0 6.6 6.7
2018-May-18 13:00N 50°36' W 096°54'0 0.0 030 / 141020.7 6.1 6.1
2018-May-18 12:00N 50°36' W 096°54'0 0.0 030 / 121020.8 6.2 6.2
2018-May-18 11:00N 50°36' W 096°54'0 0.0 050 / 91020.2 6.4 6.3
2018-May-18 10:00N 50°36' W 096°54'0 0.0 060 / 101020.3 6.4 6.3
2018-May-18 09:00N 50°36' W 096°54'0 0.0 060 / 111020.4 7.0 5.8
2018-May-18 08:00N 50°36' W 096°54'0 0.0 030 / 91021.2 7.1 5.9
2018-May-18 07:00N 50°36' W 096°54'0 0.0 050 / 111020.9 7.4 5.6
2018-May-18 06:00N 50°36' W 096°54'0 0.0 050 / 91021.2 7.0 6.1
2018-May-18 05:00N 50°36' W 096°54'0 0.0 060 / 121021.4 7.6 5.4
2018-May-18 04:00N 50°36' W 096°54'0 0.0 050 / 111021.7 7.8 5.5
2018-May-18 03:00N 50°36' W 096°54'0 0.0 050 / 121022.0 7.5 6.2
2018-May-18 02:00N 50°36' W 096°54'0 0.0 050 / 121021.1 7.4 6.0
2018-May-18 01:00N 50°36' W 096°54'0 0.0 040 / 121021.5 7.2 5.7
2018-May-18 00:00N 50°36' W 096°54'0 0.0 040 / 131020.6 7.7 6.2
2018-May-17 23:00N 50°36' W 096°54'0 0.0 040 / 161020.9 7.3 6.5
2018-May-17 22:00N 50°36' W 096°54'0 0.0 040 / 161021.6 7.1 6.5
2018-May-17 21:00N 50°36' W 096°54'0 0.0 040 / 131022.1 7.0 5.8
2018-May-17 20:00N 50°36' W 096°54'0 0.0 020 / 111022.5 7.5 7.1
2018-May-17 19:00N 50°36' W 096°54'0 0.0 010 / 111023.2 7.8 7.0
2018-May-17 18:00N 50°36' W 096°54'0 0.0 070 / 91023.3 7.3 6.4
2018-May-17 17:00N 50°36' W 096°54'0 0.0 060 / 141022.9 7.4 6.0
2018-May-17 16:00N 50°36' W 096°54'0 0.0 030 / 121023.1 6.7 6.6
2018-May-17 15:00N 50°36' W 096°54'0 0.0 050 / 111022.8 6.3 6.2
2018-May-17 14:00N 50°36' W 096°54'0 0.0 040 / 81023.5 6.3 6.2
2018-May-17 13:00N 50°36' W 096°54'0 0.0 050 / 91023.5 6.1 6.0
2018-May-17 12:00N 50°36' W 096°54'0 0.0 050 / 81023.2 6.2 6.0
2018-May-17 11:00N 50°36' W 096°54'0 0.0 060 / 71022.8 6.2 5.9
2018-May-17 10:00N 50°36' W 096°54'0 0.0 060 / 61022.6 6.1 5.9
2018-May-17 09:00N 50°36' W 096°54'0 0.0 040 / 71022.2 6.0 5.8
2018-May-17 08:00N 50°36' W 096°54'0 0.0 040 / 91022.0 5.9 5.7
2018-May-17 07:00N 50°36' W 096°54'0 0.0 020 / 111021.7 6.1 5.5
2018-May-17 06:00N 50°36' W 096°54'0 0.0 020 / 121021.6 6.6 5.4
2018-May-17 05:00N 50°36' W 096°54'0 0.0 010 / 121021.2 6.9 5.0
2018-May-17 04:00N 50°36' W 096°54'0 0.0 020 / 111021.0 7.0 5.4
2018-May-17 03:00N 50°36' W 096°54'0 0.0 010 / 111020.5 7.4 4.4
2018-May-17 02:00N 50°36' W 096°54'0 0.0 010 / 141019.9 8.7 3.2
2018-May-17 01:00N 50°36' W 096°54'0 0.0 010 / 131019.6 9.9 3.0
2018-May-17 00:00N 50°36' W 096°54'0 0.0 010 / 121019.2 9.9 3.1
2018-May-16 23:00N 50°36' W 096°54'0 0.0 010 / 161019.5 10.1 3.1
2018-May-16 22:00N 50°36' W 096°54'0 0.0 010 / 151019.4 10.5 3.0
2018-May-16 21:00N 50°36' W 096°54'0 0.0 010 / 151019.5 10.2 4.0
2018-May-16 20:00N 50°36' W 096°54'0 0.0 010 / 151019.3 9.5 4.1
2018-May-16 19:00N 50°36' W 096°54'0 0.0 010 / 141019.1 7.9 5.0
2018-May-16 18:00N 50°36' W 096°54'0 0.0 010 / 141019.3 6.0 5.9
2018-May-16 17:00N 50°36' W 096°54'0 0.0 020 / 151019.1 5.2 5.1
2018-May-16 16:00N 50°36' W 096°54'0 0.0 020 / 191018.4 4.8 4.8
2018-May-16 15:00N 50°36' W 096°54'0 0.0 010 / 151017.6 4.7 4.7
2018-May-16 14:00N 50°36' W 096°54'0 0.0 010 / 181016.5 4.2 4.3
2018-May-16 13:00N 50°36' W 096°54'0 0.0 360 / 171015.2 4.2 4.4
2018-May-16 12:00N 50°36' W 096°54'0 0.0 360 / 171014.3 4.2 4.3
2018-May-16 11:00N 50°36' W 096°54'0 0.0 360 / 201012.7 4.9 4.9
2018-May-16 10:00N 50°36' W 096°54'0 0.0 360 / 171011.5 6.9 6.3
2018-May-16 09:00N 50°36' W 096°54'0 0.0 350 / 121010.3 9.3 4.7
2018-May-16 08:00N 50°36' W 096°54'0 0.0 360 / 171008.9 10.5 4.7
2018-May-16 07:00N 50°36' W 096°54'0 0.0 360 / 141008.1 11.6 4.3
2018-May-16 06:00N 50°36' W 096°54'0 0.0 340 / 91007.3 13.4 1.8
2018-May-16 05:00N 50°36' W 096°54'0 0.0 350 / 151006.2 14.1 2.1
2018-May-16 04:00N 50°36' W 096°54'0 0.0 350 / 111005.4 17.1 2.8
2018-May-16 03:00N 50°36' W 096°54'0 0.0 360 / 111004.4 17.6 3.3
2018-May-16 01:00N 50°36' W 096°54'0 0.0 220 / 81002.9 24.8 3.6
2018-May-16 00:00N 50°36' W 096°54'0 0.0 240 / 91002.5 26.3 2.9
2018-May-15 23:00N 50°36' W 096°54'0 0.0 300 / 61002.1 25.7 5.1
2018-May-15 22:00N 50°36' W 096°54'0 0.0 250 / 141001.5 29.0 1.7
2018-May-15 21:00N 50°36' W 096°54'0 0.0 240 / 171002.7 27.9 2.2
2018-May-15 20:00N 50°36' W 096°54'0 0.0 240 / 191004.1 26.7 1.6
2018-May-15 19:00N 50°36' W 096°54'0 0.0 230 / 231005.0 25.6 0.3
2018-May-15 18:00N 50°36' W 096°54'0 0.0 210 / 241006.2 21.8-2.2
2018-May-15 17:00N 50°36' W 096°54'0 0.0 190 / 231008.6 16.2-2.0
2018-May-15 16:00N 50°36' W 096°54'0 0.0 170 / 171011.1 12.8-1.5
2018-May-15 15:00N 50°36' W 096°54'0 0.0 140 / 151013.5 7.9 2.3
2018-May-15 14:00N 50°36' W 096°54'0 0.0 140 / 91015.4 7.3 6.1
2018-May-15 13:00N 50°36' W 096°54'0 0.0 170 / 61016.3 6.4 3.1
2018-May-15 12:00N 50°36' W 096°54'0 0.0 130 / 41017.1 5.4 3.7
2018-May-15 11:00N 50°36' W 096°54'0 0.0 220 / 11016.9 3.4-4.1
2018-May-15 10:00N 50°36' W 096°54'0 0.0 210 / 21017.5 2.8-5.2
2018-May-15 09:00N 50°36' W 096°54'0 0.0 020 / 11017.1 5.9 0.2
2018-May-15 08:00N 50°36' W 096°54'0 0.0 250 / 21017.3 5.7-5.0
2018-May-15 07:00N 50°36' W 096°54'0 0.0 240 / 31017.7 6.2-7.0
2018-May-15 06:00N 50°36' W 096°54'0 0.0 320 / 21017.4 9.0-6.5
2018-May-15 05:00N 50°36' W 096°54'0 0.0 010 / 101017.4 8.9-1.6
2018-May-15 04:00N 50°36' W 096°54'0 0.0 010 / 81017.5 7.9 0.1
2018-May-15 03:00N 50°36' W 096°54'0 0.0 020 / 91017.2 7.3 1.8
2018-May-15 02:00N 50°36' W 096°54'0 0.0 020 / 71016.8 7.2 2.3
2018-May-15 01:00N 50°36' W 096°54'0 0.0 040 / 111016.3 8.1 1.3
2018-May-15 00:00N 50°36' W 096°54'0 0.0 040 / 41016.3 9.8-0.5
2018-May-14 23:00N 50°36' W 096°54'0 0.0 020 / 31015.9 10.0-0.2
2018-May-14 22:00N 50°36' W 096°54'0 0.0 060 / 71015.4 8.4 1.0
2018-May-14 21:00N 50°36' W 096°54'0 0.0 060 / 121014.9 8.0 1.5
2018-May-14 20:00N 50°36' W 096°54'0 0.0 040 / 101014.8 11.1 1.0
2018-May-14 19:00N 50°36' W 096°54'0 0.0 320 / 121014.0 17.4-2.9
2018-May-14 18:00N 50°36' W 096°54'0 0.0 330 / 51014.7 15.8-0.8
2018-May-14 17:00N 50°36' W 096°54'0 0.0 090 / 41015.4 10.1 2.0
2018-May-14 16:00N 50°36' W 096°54'0 0.0 060 / 41015.9 7.7 2.9
2018-May-14 15:00N 50°36' W 096°54'0 0.0 030 / 51015.6 7.2 3.1
2018-May-14 14:00N 50°36' W 096°54'0 0.0 020 / 81015.4 7.5 2.5
2018-May-14 13:00N 50°36' W 096°54'0 0.0 360 / 81014.6 9.1 0.4
2018-May-14 12:00N 50°36' W 096°54'0 0.0 300 / 71013.8 8.4-0.2
2018-May-14 11:00N 50°36' W 096°54'0 0.0 280 / 71012.9 7.5-0.8
2018-May-14 10:00N 50°36' W 096°54'0 0.0 280 / 71011.6 8.2-1.4
2018-May-14 09:00N 50°36' W 096°54'0 0.0 270 / 61011.1 9.3-1.4
2018-May-14 08:00N 50°36' W 096°54'0 0.0 310 / 41010.7 11.9-1.2
2018-May-14 07:00N 50°36' W 096°54'0 0.0 320 / 41010.8 12.5-1.1
2018-May-14 06:00N 50°36' W 096°54'0 0.0 340 / 61010.9 13.1-0.8
2018-May-14 05:00N 50°36' W 096°54'0 0.0 340 / 71010.9 13.8-0.2
2018-May-14 04:00N 50°36' W 096°54'0 0.0 350 / 101010.7 14.0 0.5
2018-May-14 03:00N 50°36' W 096°54'0 0.0 360 / 111010.0 11.5 1.8
2018-May-14 02:00N 50°36' W 096°54'0 0.0 010 / 91009.5 9.7 1.6
2018-May-14 01:00N 50°36' W 096°54'0 0.0 010 / 151007.6 10.0 1.8
2018-May-14 00:00N 50°36' W 096°54'0 0.0 030 / 131007.2 9.6 1.6
2018-May-13 23:00N 50°36' W 096°54'0 0.0 320 / 111005.3 25.6-1.1
2018-May-13 22:00N 50°36' W 096°54'0 0.0 350 / 61005.8 19.7 0.3
2018-May-13 21:00N 50°36' W 096°54'0 0.0 300 / 91005.4 25.4-2.6
2018-May-13 20:00N 50°36' W 096°54'0 0.0 280 / 111005.8 24.8 0.5
2018-May-13 19:00N 50°36' W 096°54'0 0.0 270 / 91006.3 23.5 2.1
2018-May-13 18:00N 50°36' W 096°54'0 0.0 250 / 121006.6 21.9 2.4
2018-May-13 17:00N 50°36' W 096°54'0 0.0 260 / 111007.2 20.9 2.8
2018-May-13 16:00N 50°36' W 096°54'0 0.0 250 / 141007.3 19.6 2.6
2018-May-13 15:00N 50°36' W 096°54'0 0.0 230 / 151007.6 18.1 3.1
2018-May-13 14:00N 50°36' W 096°54'0 0.0 230 / 121008.5 14.7 2.4
2018-May-13 13:00N 50°36' W 096°54'0 0.0 220 / 121008.8 13.1 1.4
2018-May-13 12:00N 50°36' W 096°54'0 0.0 220 / 111009.1 11.5 0.4
2018-May-13 11:00N 50°36' W 096°54'0 0.0 220 / 101009.4 11.0-0.2
2018-May-13 10:00N 50°36' W 096°54'0 0.0 220 / 91009.7 11.1-0.7
2018-May-13 09:00N 50°36' W 096°54'0 0.0 220 / 81009.7 12.1-1.2
2018-May-13 08:00N 50°36' W 096°54'0 0.0 220 / 61009.9 12.3-1.9
2018-May-13 07:00N 50°36' W 096°54'0 0.0 220 / 81010.4 13.6-1.5
2018-May-13 06:00N 50°36' W 096°54'0 0.0 220 / 91010.8 14.1-1.4
2018-May-13 05:00N 50°36' W 096°54'0 0.0 220 / 71011.2 14.7-1.9
2018-May-13 04:00N 50°36' W 096°54'   210 / 71011.4 15.9-4.4
Track history (hours):
 
Tides and Currents Weather Stations Pressure Air Temp Water Temp Dewpoint Dewpoint Depression Visibility Wind Speed Wind Dir Waves Ship Positions

Oceanographic research ship Namao (Canada)

Last reported at 2018-May-23 04:00 UTC. Time now 2018-May-23 05:28 UTC.
Position N 50°36' W 096°54'.

Wind from 200 at 7 knots

Barometer 1013.7 mb
Air temperature 20.7 ° C
Dewpoint 8.1 ° C

Date/timePositionNaut miles runAvg speedWind from/ knotsBaromVisibWave heightAir tempDewpointWater temp
2018-May-23 04:00N 50°36' W 096°54'0 0.0 200 / 71013.7 20.7 8.1
2018-May-23 03:00N 50°36' W 096°54'0 0.0 180 / 51013.4 20.1 9.2
2018-May-23 02:00N 50°36' W 096°54'0 0.0 170 / 41012.7 19.7 8.3
2018-May-23 01:00N 50°36' W 096°54'0 0.0 150 / 51012.8 17.2 9.5
2018-May-23 00:00N 50°36' W 096°54'0 0.0 100 / 41012.5 16.711.9
2018-May-22 23:00N 50°36' W 096°54'0 0.0 080 / 41012.5 14.412.9
2018-May-22 22:00N 50°36' W 096°54'0 0.0 110 / 111012.3 16.711.3
2018-May-22 21:00N 50°36' W 096°54'0 0.0 110 / 101012.3 16.711.5
2018-May-22 20:00N 50°36' W 096°54'0 0.0 100 / 111012.4 17.411.1
2018-May-22 19:00N 50°36' W 096°54'0 0.0 110 / 101013.0 16.412.3
2018-May-22 18:00N 50°36' W 096°54'0 0.0 120 / 111013.1 15.512.7
2018-May-22 17:00N 50°36' W 096°54'0 0.0 130 / 111013.0 14.412.9
2018-May-22 16:00N 50°36' W 096°54'0 0.0 130 / 81012.8 15.012.4
2018-May-22 15:00N 50°36' W 096°54'0 0.0 160 / 71012.7 16.7 9.7
2018-May-22 14:00N 50°36' W 096°54'0 0.0 190 / 101012.7 16.8 8.7
2018-May-22 13:00N 50°36' W 096°54'0 0.0 200 / 81012.7 14.7 7.4
2018-May-22 12:00N 50°36' W 096°54'0 0.0 190 / 81012.6 12.7 5.3
2018-May-22 11:00N 50°36' W 096°54'0 0.0 200 / 71012.1 12.7 3.3
2018-May-22 10:00N 50°36' W 096°54'0 0.0 210 / 91011.8 12.8 0.2
2018-May-22 09:00N 50°36' W 096°54'0 0.0 210 / 81011.4 13.7 0.2
2018-May-22 08:00N 50°36' W 096°54'0 0.0 200 / 81011.3 13.4-1.7
2018-May-22 07:00N 50°36' W 096°54'0 0.0 190 / 61011.1 14.4-2.4
2018-May-22 06:00N 50°36' W 096°54'0 0.0 180 / 71011.0 14.8-1.4
2018-May-22 05:00N 50°36' W 096°54'0 0.0 190 / 81011.4 16.7-2.7
2018-May-22 04:00N 50°36' W 096°54'0 0.0 190 / 71011.2 18.5-1.3
2018-May-22 03:00N 50°36' W 096°54'0 0.0 180 / 51010.9 16.5 4.6
2018-May-22 02:00N 50°36' W 096°54'0 0.0 160 / 71010.6 17.9 6.5
2018-May-22 01:00N 50°36' W 096°54'0 0.0 160 / 81010.6 22.5 1.2
2018-May-22 00:00N 50°36' W 096°54'0 0.0 150 / 101011.2 20.1 1.7
2018-May-21 23:00N 50°36' W 096°54'0 0.0 150 / 91011.5 19.3 2.8
2018-May-21 22:00N 50°36' W 096°54'0 0.0 150 / 101012.1 17.4 3.7
2018-May-21 21:00N 50°36' W 096°54'0 0.0 130 / 151012.9 16.9 5.6
2018-May-21 20:00N 50°36' W 096°54'0 0.0 120 / 111013.8 15.7 6.9
2018-May-21 19:00N 50°36' W 096°54'0 0.0 110 / 121014.5 15.4 5.5
2018-May-21 18:00N 50°36' W 096°54'0 0.0 110 / 91015.4 14.3 7.1
2018-May-21 17:00N 50°36' W 096°54'0 0.0 120 / 131015.6 13.8 6.8
2018-May-21 16:00N 50°36' W 096°54'0 0.0 140 / 71016.3 13.3 6.2
2018-May-21 15:00N 50°36' W 096°54'0 0.0 230 / 51016.6 20.4 0.1
2018-May-21 14:00N 50°36' W 096°54'0 0.0 240 / 61017.3 18.1 1.1
2018-May-21 13:00N 50°36' W 096°54'0 0.0 210 / 51017.8 12.7 1.4
2018-May-21 12:00N 50°36' W 096°54'0 0.0 180 / 61017.8 9.0 0.9
2018-May-21 11:00N 50°36' W 096°54'0 0.0 190 / 61017.5 8.6 0.8
2018-May-21 10:00N 50°36' W 096°54'0 0.0 220 / 41017.3 12.0-1.0
2018-May-21 09:00N 50°36' W 096°54'0 0.0 230 / 71017.1 14.4-1.3
2018-May-21 08:00N 50°36' W 096°54'0 0.0 230 / 71016.8 14.4-1.3
2018-May-21 07:00N 50°36' W 096°54'0 0.0 210 / 111016.8 15.6-1.2
2018-May-21 06:00N 50°36' W 096°54'0 0.0 210 / 121016.7 16.1-1.4
2018-May-21 05:00N 50°36' W 096°54'0 0.0 190 / 81016.7 16.1-1.0
2018-May-21 04:00N 50°36' W 096°54'0 0.0 180 / 81016.3 15.5 6.4
2018-May-21 03:00N 50°36' W 096°54'0 0.0 180 / 71016.3 15.8 5.4
2018-May-21 02:00N 50°36' W 096°54'0 0.0 200 / 31015.9 23.2-5.0
2018-May-21 01:00N 50°36' W 096°54'0 0.0 220 / 71016.2 24.9-5.2
2018-May-20 23:00N 50°36' W 096°54'0 0.0 250 / 101017.1 25.2-5.5
2018-May-20 22:00N 50°36' W 096°54'0 0.0 240 / 101017.7 24.9-5.3
2018-May-20 21:00N 50°36' W 096°54'0 0.0 240 / 91018.2 24.9-3.8
2018-May-20 20:00N 50°36' W 096°54'0 0.0 180 / 71018.9 21.2-1.2
2018-May-20 19:00N 50°36' W 096°54'0 0.0 140 / 91019.5 17.6 2.4
2018-May-20 18:00N 50°36' W 096°54'0 0.0 120 / 141019.7 17.4 4.3
2018-May-20 17:00N 50°36' W 096°54'0 0.0 130 / 91020.2 15.2 6.4
2018-May-20 15:00N 50°36' W 096°54'0 0.0 260 / 41020.7 19.7-0.8
2018-May-20 14:00N 50°36' W 096°54'0 0.0 250 / 81021.0 16.5-0.1
2018-May-20 13:00N 50°36' W 096°54'0 0.0 250 / 91021.7 12.7 0.7
2018-May-20 12:00N 50°36' W 096°54'0 0.0 240 / 71021.8 9.9-0.2
2018-May-20 11:00N 50°36' W 096°54'0 0.0 230 / 51021.9 6.5-0.7
2018-May-20 10:00N 50°36' W 096°54'0 0.0 240 / 61022.0 6.2-1.2
2018-May-20 09:00N 50°36' W 096°54'0 0.0 230 / 71022.1 6.5-1.1
2018-May-20 08:00N 50°36' W 096°54'0 0.0 240 / 51022.1 6.1-1.7
2018-May-20 07:00N 50°36' W 096°54'0 0.0 240 / 41022.1 7.8-2.2
2018-May-20 06:00N 50°36' W 096°54'0 0.0 230 / 51022.0 8.5-2.5
2018-May-20 05:00N 50°36' W 096°54'0 0.0 250 / 41022.0 8.4-1.5
2018-May-20 04:00N 50°36' W 096°54'0 0.0 240 / 21021.9 10.3-1.9
2018-May-20 03:00N 50°36' W 096°54'0 0.0 1021.9 11.8-0.3
2018-May-20 02:00N 50°36' W 096°54'0 0.0 090 / 21021.4 12.5 0.9
2018-May-20 01:00N 50°36' W 096°54'0 0.0 120 / 21021.3 13.6 3.8
2018-May-20 00:00N 50°36' W 096°54'0 0.0 090 / 21021.4 14.2 0.7
2018-May-19 23:00N 50°36' W 096°54'0 0.0 050 / 71021.4 12.5 2.2
2018-May-19 22:00N 50°36' W 096°54'0 0.0 070 / 41021.5 13.6 3.4
2018-May-19 21:00N 50°36' W 096°54'0 0.0 080 / 61021.8 13.0 2.9
2018-May-19 20:00N 50°36' W 096°54'0 0.0 130 / 71022.2 11.9 5.8
2018-May-19 19:00N 50°36' W 096°54'0 0.0 120 / 91022.8 11.2 8.3
2018-May-19 18:00N 50°36' W 096°54'0 0.0 120 / 81023.4 9.8 9.7
2018-May-19 17:00N 50°36' W 096°54'0 0.0 110 / 91023.8 9.6 9.2
2018-May-19 16:00N 50°36' W 096°54'0 0.0 110 / 61024.1 9.0 6.6
2018-May-19 15:00N 50°36' W 096°54'0 0.0 140 / 61024.8 8.5 5.5
2018-May-19 14:00N 50°36' W 096°54'0 0.0 220 / 31024.6 8.9-0.9
2018-May-19 13:00N 50°36' W 096°54'0 0.0 270 / 21024.7 5.8-1.3
2018-May-19 12:00N 50°36' W 096°54'0 0.0 310 / 21024.2 4.4-2.6
2018-May-19 11:00N 50°36' W 096°54'0 0.0 280 / 41024.3 1.4-2.6
2018-May-19 10:00N 50°36' W 096°54'0 0.0 290 / 21023.7 1.9-2.8
2018-May-19 09:00N 50°36' W 096°54'0 0.0 290 / 31023.6 3.0-3.3
2018-May-19 08:00N 50°36' W 096°54'0 0.0 330 / 21023.1 5.5-3.0
2018-May-19 07:00N 50°36' W 096°54'0 0.0 320 / 31022.6 6.1-3.9
2018-May-19 06:00N 50°36' W 096°54'0 0.0 340 / 41022.4 7.2-3.7
2018-May-19 05:00N 50°36' W 096°54'0 0.0 320 / 41022.1 6.6-0.5
2018-May-19 04:00N 50°36' W 096°54'0 0.0 340 / 31021.8 7.8 3.7
2018-May-19 03:00N 50°36' W 096°54'0 0.0 010 / 81021.2 8.8 3.1
2018-May-19 02:00N 50°36' W 096°54'0 0.0 040 / 71020.4 8.7 6.0
2018-May-19 01:00N 50°36' W 096°54'0 0.0 010 / 81020.3 8.5 5.9
2018-May-19 00:00N 50°36' W 096°54'0 0.0 020 / 91020.0 8.4 5.7
2018-May-18 23:00N 50°36' W 096°54'0 0.0 030 / 51020.1 7.2 6.9
2018-May-18 22:00N 50°36' W 096°54'0 0.0 020 / 101019.7 8.0 7.3
2018-May-18 21:00N 50°36' W 096°54'0 0.0 020 / 101020.0 7.6 7.5
2018-May-18 20:00N 50°36' W 096°54'0 0.0 020 / 131019.9 7.2 7.1
2018-May-18 19:00N 50°36' W 096°54'0 0.0 020 / 161019.4 7.1 7.1
2018-May-18 18:00N 50°36' W 096°54'0 0.0 020 / 141019.9 7.0 7.0
2018-May-18 17:00N 50°36' W 096°54'0 0.0 030 / 151020.1 6.8 6.8
2018-May-18 16:00N 50°36' W 096°54'0 0.0 030 / 141019.9 6.3 6.4
2018-May-18 15:00N 50°36' W 096°54'0 0.0 020 / 131020.4 6.1 6.2
2018-May-18 14:00N 50°36' W 096°54'0 0.0 060 / 151020.0 6.6 6.7
2018-May-18 13:00N 50°36' W 096°54'0 0.0 030 / 141020.7 6.1 6.1
2018-May-18 12:00N 50°36' W 096°54'0 0.0 030 / 121020.8 6.2 6.2
2018-May-18 11:00N 50°36' W 096°54'0 0.0 050 / 91020.2 6.4 6.3
2018-May-18 10:00N 50°36' W 096°54'0 0.0 060 / 101020.3 6.4 6.3
2018-May-18 09:00N 50°36' W 096°54'0 0.0 060 / 111020.4 7.0 5.8
2018-May-18 08:00N 50°36' W 096°54'0 0.0 030 / 91021.2 7.1 5.9
2018-May-18 07:00N 50°36' W 096°54'0 0.0 050 / 111020.9 7.4 5.6
2018-May-18 06:00N 50°36' W 096°54'0 0.0 050 / 91021.2 7.0 6.1
2018-May-18 05:00N 50°36' W 096°54'0 0.0 060 / 121021.4 7.6 5.4
2018-May-18 04:00N 50°36' W 096°54'0 0.0 050 / 111021.7 7.8 5.5
2018-May-18 03:00N 50°36' W 096°54'0 0.0 050 / 121022.0 7.5 6.2
2018-May-18 02:00N 50°36' W 096°54'0 0.0 050 / 121021.1 7.4 6.0
2018-May-18 01:00N 50°36' W 096°54'0 0.0 040 / 121021.5 7.2 5.7
2018-May-18 00:00N 50°36' W 096°54'0 0.0 040 / 131020.6 7.7 6.2
2018-May-17 23:00N 50°36' W 096°54'0 0.0 040 / 161020.9 7.3 6.5
2018-May-17 22:00N 50°36' W 096°54'0 0.0 040 / 161021.6 7.1 6.5
2018-May-17 21:00N 50°36' W 096°54'0 0.0 040 / 131022.1 7.0 5.8
2018-May-17 20:00N 50°36' W 096°54'0 0.0 020 / 111022.5 7.5 7.1
2018-May-17 19:00N 50°36' W 096°54'0 0.0 010 / 111023.2 7.8 7.0
2018-May-17 18:00N 50°36' W 096°54'0 0.0 070 / 91023.3 7.3 6.4
2018-May-17 17:00N 50°36' W 096°54'0 0.0 060 / 141022.9 7.4 6.0
2018-May-17 16:00N 50°36' W 096°54'0 0.0 030 / 121023.1 6.7 6.6
2018-May-17 15:00N 50°36' W 096°54'0 0.0 050 / 111022.8 6.3 6.2
2018-May-17 14:00N 50°36' W 096°54'0 0.0 040 / 81023.5 6.3 6.2
2018-May-17 13:00N 50°36' W 096°54'0 0.0 050 / 91023.5 6.1 6.0
2018-May-17 12:00N 50°36' W 096°54'0 0.0 050 / 81023.2 6.2 6.0
2018-May-17 11:00N 50°36' W 096°54'0 0.0 060 / 71022.8 6.2 5.9
2018-May-17 10:00N 50°36' W 096°54'0 0.0 060 / 61022.6 6.1 5.9
2018-May-17 09:00N 50°36' W 096°54'0 0.0 040 / 71022.2 6.0 5.8
2018-May-17 08:00N 50°36' W 096°54'0 0.0 040 / 91022.0 5.9 5.7
2018-May-17 07:00N 50°36' W 096°54'0 0.0 020 / 111021.7 6.1 5.5
2018-May-17 06:00N 50°36' W 096°54'0 0.0 020 / 121021.6 6.6 5.4
2018-May-17 05:00N 50°36' W 096°54'0 0.0 010 / 121021.2 6.9 5.0
2018-May-17 04:00N 50°36' W 096°54'0 0.0 020 / 111021.0 7.0 5.4
2018-May-17 03:00N 50°36' W 096°54'0 0.0 010 / 111020.5 7.4 4.4
2018-May-17 02:00N 50°36' W 096°54'0 0.0 010 / 141019.9 8.7 3.2
2018-May-17 01:00N 50°36' W 096°54'0 0.0 010 / 131019.6 9.9 3.0
2018-May-17 00:00N 50°36' W 096°54'0 0.0 010 / 121019.2 9.9 3.1
2018-May-16 23:00N 50°36' W 096°54'0 0.0 010 / 161019.5 10.1 3.1
2018-May-16 22:00N 50°36' W 096°54'0 0.0 010 / 151019.4 10.5 3.0
2018-May-16 21:00N 50°36' W 096°54'0 0.0 010 / 151019.5 10.2 4.0
2018-May-16 20:00N 50°36' W 096°54'0 0.0 010 / 151019.3 9.5 4.1
2018-May-16 19:00N 50°36' W 096°54'0 0.0 010 / 141019.1 7.9 5.0
2018-May-16 18:00N 50°36' W 096°54'0 0.0 010 / 141019.3 6.0 5.9
2018-May-16 17:00N 50°36' W 096°54'0 0.0 020 / 151019.1 5.2 5.1
2018-May-16 16:00N 50°36' W 096°54'0 0.0 020 / 191018.4 4.8 4.8
2018-May-16 15:00N 50°36' W 096°54'0 0.0 010 / 151017.6 4.7 4.7
2018-May-16 14:00N 50°36' W 096°54'0 0.0 010 / 181016.5 4.2 4.3
2018-May-16 13:00N 50°36' W 096°54'0 0.0 360 / 171015.2 4.2 4.4
2018-May-16 12:00N 50°36' W 096°54'0 0.0 360 / 171014.3 4.2 4.3
2018-May-16 11:00N 50°36' W 096°54'0 0.0 360 / 201012.7 4.9 4.9
2018-May-16 10:00N 50°36' W 096°54'0 0.0 360 / 171011.5 6.9 6.3
2018-May-16 09:00N 50°36' W 096°54'0 0.0 350 / 121010.3 9.3 4.7
2018-May-16 08:00N 50°36' W 096°54'0 0.0 360 / 171008.9 10.5 4.7
2018-May-16 07:00N 50°36' W 096°54'0 0.0 360 / 141008.1 11.6 4.3
2018-May-16 06:00N 50°36' W 096°54'0 0.0 340 / 91007.3 13.4 1.8
2018-May-16 05:00N 50°36' W 096°54'0 0.0 350 / 151006.2 14.1 2.1
2018-May-16 04:00N 50°36' W 096°54'0 0.0 350 / 111005.4 17.1 2.8
2018-May-16 03:00N 50°36' W 096°54'0 0.0 360 / 111004.4 17.6 3.3
2018-May-16 01:00N 50°36' W 096°54'0 0.0 220 / 81002.9 24.8 3.6
2018-May-16 00:00N 50°36' W 096°54'0 0.0 240 / 91002.5 26.3 2.9
2018-May-15 23:00N 50°36' W 096°54'0 0.0 300 / 61002.1 25.7 5.1
2018-May-15 22:00N 50°36' W 096°54'0 0.0 250 / 141001.5 29.0 1.7
2018-May-15 21:00N 50°36' W 096°54'0 0.0 240 / 171002.7 27.9 2.2
2018-May-15 20:00N 50°36' W 096°54'0 0.0 240 / 191004.1 26.7 1.6
2018-May-15 19:00N 50°36' W 096°54'0 0.0 230 / 231005.0 25.6 0.3
2018-May-15 18:00N 50°36' W 096°54'0 0.0 210 / 241006.2 21.8-2.2
2018-May-15 17:00N 50°36' W 096°54'0 0.0 190 / 231008.6 16.2-2.0
2018-May-15 16:00N 50°36' W 096°54'0 0.0 170 / 171011.1 12.8-1.5
2018-May-15 15:00N 50°36' W 096°54'0 0.0 140 / 151013.5 7.9 2.3
2018-May-15 14:00N 50°36' W 096°54'0 0.0 140 / 91015.4 7.3 6.1
2018-May-15 13:00N 50°36' W 096°54'0 0.0 170 / 61016.3 6.4 3.1
2018-May-15 12:00N 50°36' W 096°54'0 0.0 130 / 41017.1 5.4 3.7
2018-May-15 11:00N 50°36' W 096°54'0 0.0 220 / 11016.9 3.4-4.1
2018-May-15 10:00N 50°36' W 096°54'0 0.0 210 / 21017.5 2.8-5.2
2018-May-15 09:00N 50°36' W 096°54'0 0.0 020 / 11017.1 5.9 0.2
2018-May-15 08:00N 50°36' W 096°54'0 0.0 250 / 21017.3 5.7-5.0
2018-May-15 07:00N 50°36' W 096°54'0 0.0 240 / 31017.7 6.2-7.0
2018-May-15 06:00N 50°36' W 096°54'0 0.0 320 / 21017.4 9.0-6.5
2018-May-15 05:00N 50°36' W 096°54'0 0.0 010 / 101017.4 8.9-1.6
2018-May-15 04:00N 50°36' W 096°54'0 0.0 010 / 81017.5 7.9 0.1
2018-May-15 03:00N 50°36' W 096°54'0 0.0 020 / 91017.2 7.3 1.8
2018-May-15 02:00N 50°36' W 096°54'0 0.0 020 / 71016.8 7.2 2.3
2018-May-15 01:00N 50°36' W 096°54'0 0.0 040 / 111016.3 8.1 1.3
2018-May-15 00:00N 50°36' W 096°54'0 0.0 040 / 41016.3 9.8-0.5
2018-May-14 23:00N 50°36' W 096°54'0 0.0 020 / 31015.9 10.0-0.2
2018-May-14 22:00N 50°36' W 096°54'0 0.0 060 / 71015.4 8.4 1.0
2018-May-14 21:00N 50°36' W 096°54'0 0.0 060 / 121014.9 8.0 1.5
2018-May-14 20:00N 50°36' W 096°54'0 0.0 040 / 101014.8 11.1 1.0
2018-May-14 19:00N 50°36' W 096°54'0 0.0 320 / 121014.0 17.4-2.9
2018-May-14 18:00N 50°36' W 096°54'0 0.0 330 / 51014.7 15.8-0.8
2018-May-14 17:00N 50°36' W 096°54'0 0.0 090 / 41015.4 10.1 2.0
2018-May-14 16:00N 50°36' W 096°54'0 0.0 060 / 41015.9 7.7 2.9
2018-May-14 15:00N 50°36' W 096°54'0 0.0 030 / 51015.6 7.2 3.1
2018-May-14 14:00N 50°36' W 096°54'0 0.0 020 / 81015.4 7.5 2.5
2018-May-14 13:00N 50°36' W 096°54'0 0.0 360 / 81014.6 9.1 0.4
2018-May-14 12:00N 50°36' W 096°54'0 0.0 300 / 71013.8 8.4-0.2
2018-May-14 11:00N 50°36' W 096°54'0 0.0 280 / 71012.9 7.5-0.8
2018-May-14 10:00N 50°36' W 096°54'0 0.0 280 / 71011.6 8.2-1.4
2018-May-14 09:00N 50°36' W 096°54'0 0.0 270 / 61011.1 9.3-1.4
2018-May-14 08:00N 50°36' W 096°54'0 0.0 310 / 41010.7 11.9-1.2
2018-May-14 07:00N 50°36' W 096°54'0 0.0 320 / 41010.8 12.5-1.1
2018-May-14 06:00N 50°36' W 096°54'0 0.0 340 / 61010.9 13.1-0.8
2018-May-14 05:00N 50°36' W 096°54'0 0.0 340 / 71010.9 13.8-0.2
2018-May-14 04:00N 50°36' W 096°54'0 0.0 350 / 101010.7 14.0 0.5
2018-May-14 03:00N 50°36' W 096°54'0 0.0 360 / 111010.0 11.5 1.8
2018-May-14 02:00N 50°36' W 096°54'0 0.0 010 / 91009.5 9.7 1.6
2018-May-14 01:00N 50°36' W 096°54'0 0.0 010 / 151007.6 10.0 1.8
2018-May-14 00:00N 50°36' W 096°54'0 0.0 030 / 131007.2 9.6 1.6
2018-May-13 23:00N 50°36' W 096°54'0 0.0 320 / 111005.3 25.6-1.1
2018-May-13 22:00N 50°36' W 096°54'0 0.0 350 / 61005.8 19.7 0.3
2018-May-13 21:00N 50°36' W 096°54'0 0.0 300 / 91005.4 25.4-2.6
2018-May-13 20:00N 50°36' W 096°54'0 0.0 280 / 111005.8 24.8 0.5
2018-May-13 19:00N 50°36' W 096°54'0 0.0 270 / 91006.3 23.5 2.1
2018-May-13 18:00N 50°36' W 096°54'0 0.0 250 / 121006.6 21.9 2.4
2018-May-13 17:00N 50°36' W 096°54'0 0.0 260 / 111007.2 20.9 2.8
2018-May-13 16:00N 50°36' W 096°54'0 0.0 250 / 141007.3 19.6 2.6
2018-May-13 15:00N 50°36' W 096°54'0 0.0 230 / 151007.6 18.1 3.1
2018-May-13 14:00N 50°36' W 096°54'0 0.0 230 / 121008.5 14.7 2.4
2018-May-13 13:00N 50°36' W 096°54'0 0.0 220 / 121008.8 13.1 1.4
2018-May-13 12:00N 50°36' W 096°54'0 0.0 220 / 111009.1 11.5 0.4
2018-May-13 11:00N 50°36' W 096°54'0 0.0 220 / 101009.4 11.0-0.2
2018-May-13 10:00N 50°36' W 096°54'0 0.0 220 / 91009.7 11.1-0.7
2018-May-13 09:00N 50°36' W 096°54'0 0.0 220 / 81009.7 12.1-1.2
2018-May-13 08:00N 50°36' W 096°54'0 0.0 220 / 61009.9 12.3-1.9
2018-May-13 07:00N 50°36' W 096°54'0 0.0 220 / 81010.4 13.6-1.5
2018-May-13 06:00N 50°36' W 096°54'0 0.0 220 / 91010.8 14.1-1.4
2018-May-13 05:00N 50°36' W 096°54'0 0.0 220 / 71011.2 14.7-1.9
2018-May-13 04:00N 50°36' W 096°54'   210 / 71011.4 15.9-4.4

Dump ship's entire track history